CSUN Campus Station - National Weather Service Data Page - PST Time




                Date      RH     Dew  Seasonal     Current   Max Air   Min Air    Wind    Wind    Wind    Gust     Bar    Rain
                Time       %   Point      Rain    Air Temp     Since     Since   Speed    Gust     Dir     Dir   Press   Total
                               Deg F    Inches       Deg F  Midnight  Midnight     MPH     MPH                      mb  Inches
------------------------------------------------------------------------------------------------------------------------------
    08/26/2014 00:00      58    51.3      6.49        66.4      84.2      58.9       1       2      84      86    1013    0.00
    08/26/2014 00:10      61    51.5      6.49        65.9      66.6      65.3       0       1     158     153    1013    0.00
    08/26/2014 00:20      62    51.6      6.49        65.0      66.6      64.8       0       1     129     148    1013    0.00
    08/26/2014 00:30      61    51.7      6.49        65.0      66.6      64.8       0       2      68      65    1013    0.00
    08/26/2014 00:40      60    51.5      6.49        65.5      66.6      64.8       1       2      70      78    1013    0.00
    08/26/2014 00:50      61    51.5      6.49        65.5      66.6      64.8       1       2      70      51    1013    0.00
    08/26/2014 01:00      63    51.5      6.49        65.1      66.6      64.8       1       2      56      47    1013    0.00
    08/26/2014 01:10      65    52.9      6.49        65.2      66.6      64.8       1       3      74      75    1013    0.00
    08/26/2014 01:20      67    53.7      6.49        65.1      66.6      64.8       0       2      40      24    1013    0.00
    08/26/2014 01:30      68    54.2      6.49        65.1      66.6      64.8       1       3      49      67    1013    0.00
    08/26/2014 01:40      68    54.3      6.49        65.1      66.6      64.8       1       3      65      37    1013    0.00
    08/26/2014 01:50      69    54.3      6.49        64.9      66.6      64.5       1       2      83      83    1013    0.00
    08/26/2014 02:00      71    54.1      6.49        64.3      66.6      64.0       1       2      63      55    1013    0.00
    08/26/2014 02:10      70    54.4      6.49        64.3      66.6      64.0       0       1      81      86    1013    0.00
    08/26/2014 02:20      72    54.3      6.49        63.8      66.6      63.4       0       1      90      87    1013    0.00
    08/26/2014 02:30      71    54.3      6.49        63.7      66.6      63.4       1       2      69     104    1013    0.00
    08/26/2014 02:40      73    54.5      6.49        63.6      66.6      63.3       0       2      86      63    1013    0.00
    08/26/2014 02:50      73    54.4      6.49        63.3      66.6      62.9       0       0      69      66    1013    0.00
    08/26/2014 03:00      75    54.5      6.49        62.9      66.6      62.6       0       0     101     103    1013    0.00
    08/26/2014 03:10      75    54.5      6.49        62.5      66.6      62.1       1       3     149     159    1013    0.00
    08/26/2014 03:20      76    54.5      6.49        62.3      66.6      62.1       0       1     139     130    1013    0.00
    08/26/2014 03:30      76    54.3      6.49        62.2      66.6      62.0       0       0       0     168    1013    0.00
    08/26/2014 03:40      74    54.3      6.49        62.2      66.6      61.9       0       1     330     330    1013    0.00
    08/26/2014 03:50      73    53.3      6.49        61.9      66.6      61.7       0       0       0     280    1013    0.00
    08/26/2014 04:00      73    53.2      6.49        61.9      66.6      61.6       0       1     307     304    1013    0.00
    08/26/2014 04:10      72    53.2      6.49        62.1      66.6      61.6       0       1     317     316    1013    0.00
    08/26/2014 04:20      73    52.8      6.49        61.8      66.6      61.4       0       0       0     319    1013    0.00
    08/26/2014 04:30      74    52.7      6.49        61.4      66.6      61.2       0       1     318     327    1013    0.00
    08/26/2014 04:40      73    52.9      6.49        61.5      66.6      61.2       0       1     316     313    1013    0.00
    08/26/2014 04:50      73    52.6      6.49        61.4      66.6      61.2       0       0       0     323    1013    0.00
    08/26/2014 05:00      73    52.5      6.49        61.2      66.6      61.0       0       1     320     327    1013    0.00
    08/26/2014 05:10      72    52.6      6.49        61.5      66.6      61.0       0       1     307     308    1013    0.00
    08/26/2014 05:20      73    52.5      6.49        61.3      66.6      60.9       0       0       0     308    1013    0.00
    08/26/2014 05:30      73    52.6      6.49        61.2      66.6      60.8       1       1     317     328    1013    0.00
    08/26/2014 05:40      73    52.5      6.49        61.2      66.6      60.8       0       1     308     307    1013    0.00
    08/26/2014 05:50      73    52.5      6.49        61.2      66.6      60.8       0       1     317     310    1013    0.00
    08/26/2014 06:00      74    52.5      6.49        61.3      66.6      60.8       0       0       0     330    1014    0.00
    08/26/2014 06:10      75    53.9      6.49        61.5      66.6      60.8       0       0       0      75    1014    0.00
    08/26/2014 06:20      74    53.4      6.49        61.8      66.6      60.8       0       2     171     171    1014    0.00
    08/26/2014 06:30      69    54.0      6.49        63.5      66.6      60.8       1       2     178     192    1014    0.00
    08/26/2014 06:40      67    54.0      6.49        64.9      66.6      60.8       1       2     195     194    1014    0.00
    08/26/2014 06:50      63    53.9      6.49        65.8      66.6      60.8       0       1     178     173    1014    0.00
    08/26/2014 07:00      61    53.7      6.49        67.3      68.1      60.8       0       1     192     209    1014    0.00
    08/26/2014 07:10      58    53.4      6.49        68.3      68.6      60.8       0       1     258     252    1014    0.00
    08/26/2014 07:20      54    53.1      6.49        69.5      70.1      60.8       0       2     233     221    1014    0.00
    08/26/2014 07:30      54    52.9      6.49        70.3      70.7      60.8       0       2     223     212    1014    0.00
    08/26/2014 07:40      53    53.2      6.49        70.7      71.2      60.8       1       2     213     178    1014    0.00
    08/26/2014 07:50      51    53.2      6.49        71.5      72.7      60.8       1       2     180     167    1014    0.00
    08/26/2014 08:00      48    52.8      6.49        72.7      73.3      60.8       1       2     173     206    1014    0.00
    08/26/2014 08:10      49    53.1      6.49        73.6      73.9      60.8       2       4     182     184    1014    0.00
    08/26/2014 08:20      47    53.9      6.49        74.4      75.0      60.8       2       3     162      64    1014    0.00
    08/26/2014 08:30      48    54.2      6.49        74.7      75.0      60.8       3       6     131     151    1014    0.00
    08/26/2014 08:40      47    54.2      6.49        74.8      75.8      60.8       2       5     152      71    1014    0.00
    08/26/2014 08:50      47    53.6      6.49        76.0      76.6      60.8       1       5     117     169    1014    0.00
    08/26/2014 09:00      46    54.0      6.49        76.3      76.9      60.8       3       8     184     149    1014    0.00
    08/26/2014 09:10      43    53.9      6.49        77.4      77.8      60.8       4       7     152     127    1014    0.00
    08/26/2014 09:20      41    53.6      6.49        77.8      78.5      60.8       3       6     153     149    1014    0.00
    08/26/2014 09:30      41    53.1      6.49        78.9      79.8      60.8       2       5     122     135    1014    0.00
    08/26/2014 09:40      42    53.5      6.49        79.0      79.8      60.8       3       7     120     150    1014    0.00
    08/26/2014 09:50      43    54.3      6.49        79.7      80.4      60.8       4       8     156     163    1014    0.00
    08/26/2014 10:00      40    54.3      6.49        79.3      80.4      60.8       3       6     150     132    1014    0.00
    08/26/2014 10:10      39    54.1      6.49        80.7      81.2      60.8       3       8     105      94    1014    0.00
    08/26/2014 10:20      38    54.4      6.49        81.5      82.4      60.8       3       7      91     142    1014    0.00
    08/26/2014 10:30      39    55.1      6.49        82.1      82.8      60.8       5       9     158     151    1014    0.00
    08/26/2014 10:40      40    55.0      6.49        81.8      82.8      60.8       4       7     130      78    1014    0.00
    08/26/2014 10:50      39    54.8      6.49        82.4      82.8      60.8       3      11     115     146    1014    0.00
    08/26/2014 11:00      37    55.2      6.49        83.1      84.1      60.8       6      12     154     165    1014    0.00
    08/26/2014 11:10      39    55.1      6.49        83.4      84.1      60.8       6      10     165     139    1014    0.00
    08/26/2014 11:20      35    54.6      6.49        84.0      84.5      60.8       4      10     111      75    1014    0.00
    08/26/2014 11:30      34    53.7      6.49        84.5      85.2      60.8       4       8     145     149    1014    0.00
    08/26/2014 11:40      34    54.4      6.49        85.5      86.1      60.8       5      11     152     180    1014    0.00
    08/26/2014 11:50      34    53.8      6.49        85.9      86.6      60.8       6      11     158     152    1014    0.00
    08/26/2014 12:00      33    53.8      6.49        85.4      86.6      60.8       6      10     155     166    1014    0.00
    08/26/2014 12:10      31    53.4      6.49        86.2      86.9      60.8       6      11     150     162    1014    0.00
    08/26/2014 12:20      30    52.9      6.49        85.6      86.9      60.8       7      11     162     144    1014    0.00
    08/26/2014 12:30      29    51.6      6.49        86.3      87.2      60.8       6      12     150     161    1013    0.00
    08/26/2014 12:40      32    51.9      6.49        86.2      87.2      60.8       5      10     143     151    1013    0.00
    08/26/2014 12:50      31    52.7      6.49        86.1      87.2      60.8       8      14     166     141    1013    0.00
    08/26/2014 13:00      29    51.7      6.49        85.9      87.2      60.8       7      11     154     152    1013    0.00
    08/26/2014 13:10      28    50.1      6.49        86.6      87.2      60.8       6      11     145     145    1013    0.00
    08/26/2014 13:20      25    48.6      6.49        87.1      87.6      60.8       5      12     123     125    1013    0.00
    08/26/2014 13:30      24    46.0      6.49        87.1      87.6      60.8       5      12     126      87    1013    0.00
    08/26/2014 13:40      22    45.4      6.49        87.6      88.0      60.8       4       9     125     151    1013    0.00
    08/26/2014 13:50      23    45.6      6.49        87.4      88.0      60.8       6      12     132     172    1013    0.00
    08/26/2014 14:00      17    41.9      6.49        87.3      88.0      60.8       5      10     125     136    1013    0.00
    08/26/2014 14:10      17    37.1      6.49        88.4      88.9      60.8       4      11     120      88    1012    0.00
    08/26/2014 14:20      15    39.5      6.49        88.9      89.4      60.8       4       9     126     133    1012    0.00
    08/26/2014 14:30      16    35.9      6.49        88.8      89.4      60.8       5      10     110      82    1012    0.00
    08/26/2014 14:40      16    37.7      6.49        88.7      89.4      60.8       6      13     136     161    1012    0.00
    08/26/2014 14:50      15    36.0      6.49        89.1      89.6      60.8       4      10     120     141    1012    0.00
    08/26/2014 15:00      14    35.4      6.49        89.0      89.6      60.8       6      11     130     140    1012    0.00
    08/26/2014 15:10      16    35.1      6.49        88.7      89.6      60.8       4      11     126     150    1012    0.00
    08/26/2014 15:20      14    34.4      6.49        88.8      89.6      60.8       5      10     111     112    1012    0.00
    08/26/2014 15:30      15    34.1      6.49        88.3      89.6      60.8       4       8     107      83    1012    0.00
    08/26/2014 15:40      14    33.9      6.49        88.0      89.6      60.8       6      12     136     121    1012    0.00
    08/26/2014 15:50      13    33.1      6.49        88.0      89.6      60.8       4      10     109     138    1012    0.00
    08/26/2014 16:00      15    34.3      6.49        88.0      89.6      60.8       4       9     112     118    1012    0.00
    08/26/2014 16:10      16    35.5      6.49        88.1      89.6      60.8       4       9     117     141    1012    0.00
    08/26/2014 16:20      15    35.5      6.49        87.8      89.6      60.8       5      14     116     143    1012    0.00
    08/26/2014 16:30      15    35.6      6.49        87.8      89.6      60.8       4      10     124     175    1012    0.00
    08/26/2014 16:40      16    35.3      6.49        87.7      89.6      60.8       5       9     110     108    1012    0.00
    08/26/2014 16:50      16    35.5      6.49        87.5      89.6      60.8       4      10     101      87    1012    0.00
    08/26/2014 17:00      16    35.6      6.49        87.5      89.6      60.8       3       7     109     104    1012    0.00
    08/26/2014 17:10      17    36.4      6.49        87.0      89.6      60.8       2       5     178     146    1012    0.00
    08/26/2014 17:20      20    37.0      6.49        85.8      89.6      60.8       4       8     158     144    1012    0.00
    08/26/2014 17:30      31    47.4      6.49        85.4      89.6      60.8       2       7     269     138    1012    0.00
    08/26/2014 17:40      31    50.5      6.49        84.4      89.6      60.8       2       5     262     245    1012    0.00
    08/26/2014 17:50      33    50.6      6.49        83.7      89.6      60.8       2       4     237     267    1012    0.00
    08/26/2014 18:00      33    50.8      6.49        83.1      89.6      60.8       3       7     265     252    1012    0.00
    08/26/2014 18:10      33    50.7      6.49        82.6      89.6      60.8       2       5     267     253    1012    0.00
    08/26/2014 18:20      34    50.4      6.49        81.7      89.6      60.8       2       5     286     267    1012    0.00
    08/26/2014 18:30      34    49.7      6.49        80.7      89.6      60.8       1       4     298     279    1012    0.00
    08/26/2014 18:40      35    49.6      6.49        80.0      89.6      60.8       0       3     289     288    1013    0.00
    08/26/2014 18:50      35    49.4      6.49        79.4      89.6      60.8       1       3     287     298    1013    0.00
    08/26/2014 19:00      34    48.7      6.49        79.0      89.6      60.8       1       3     284     289    1013    0.00
    08/26/2014 19:10      35    48.3      6.49        78.6      89.6      60.8       1       3     261     253    1013    0.00
    08/26/2014 19:20      36    48.7      6.49        78.0      89.6      60.8       0       3     274     247    1013    0.00
    08/26/2014 19:30      37    48.8      6.49        77.6      89.6      60.8       1       3     264     245    1013    0.00
    08/26/2014 19:40      41    50.3      6.49        76.8      89.6      60.8       2       3     256     254    1013    0.00
    08/26/2014 19:50      41    50.6      6.49        75.8      89.6      60.8       2       4     254     259    1013    0.00
    08/26/2014 20:00      41    50.1      6.49        75.2      89.6      60.8       0       2     268     246    1014    0.00
    08/26/2014 20:10      42    49.7      6.49        74.7      89.6      60.8       0       2     262     252    1014    0.00
    08/26/2014 20:20      42    49.9      6.49        74.3      89.6      60.8       0       1     257     249    1014    0.00
    08/26/2014 20:30      42    49.1      6.49        74.2      89.6      60.8       0       1     255     270    1014    0.00
    08/26/2014 20:40      43    49.5      6.49        73.7      89.6      60.8       0       0       0     257    1014    0.00
    08/26/2014 20:50      42    49.2      6.49        73.4      89.6      60.8       0       0       0     257    1014    0.00
    08/26/2014 21:00      43    49.1      6.49        73.1      89.6      60.8       0       0       0     262    1014    0.00
    08/26/2014 21:10      44    49.5      6.49        72.6      89.6      60.8       0       0       0     176    1014    0.00
    08/26/2014 21:20      44    49.6      6.49        72.6      89.6      60.8       0       0       0     175    1014    0.00
    08/26/2014 21:30      45    49.6      6.49        72.5      89.6      60.8       0       0       0     172    1014    0.00
    08/26/2014 21:40      46    50.1      6.49        72.1      89.6      60.8       0       0       0     349    1014    0.00
    08/26/2014 21:50      46    50.1      6.49        71.7      89.6      60.8       0       0       0     134    1014    0.00
    08/26/2014 22:00      44    49.5      6.49        71.7      89.6      60.8       0       0       0     124    1014    0.00
    08/26/2014 22:10      46    49.1      6.49        71.5      89.6      60.8       0       0       0     185    1014    0.00
    08/26/2014 22:20      46    49.6      6.49        71.5      89.6      60.8       0       0       0     203    1014    0.00
    08/26/2014 22:30      47    50.2      6.49        71.3      89.6      60.8       0       0       0     230    1014    0.00
    08/26/2014 22:40      48    50.2      6.49        71.1      89.6      60.8       0       0       0     284    1014    0.00
    08/26/2014 22:50      49    50.5      6.49        70.8      89.6      60.8       0       0       0     283    1014    0.00
    08/26/2014 23:00      49    50.4      6.49        70.5      89.6      60.8       0       0       0     321    1014    0.00
    08/26/2014 23:10      49    50.4      6.49        70.4      89.6      60.8       0       0       0     323    1014    0.00
    08/26/2014 23:20      51    50.4      6.49        70.0      89.6      60.8       0       1      51      55    1014    0.00
    08/26/2014 23:30      52    50.9      6.49        69.5      89.6      60.8       0       1     146     136    1014    0.00
    08/26/2014 23:40      54    51.7      6.49        69.0      89.6      60.8       0       0     170     175    1014    0.00
    08/26/2014 23:50      53    51.5      6.49        68.9      89.6      60.8       0       0       0     167    1014    0.00
    08/27/2014 00:00      54    51.4      6.49        68.8      89.6      60.8       0       0       0     167    1014    0.00
    08/27/2014 00:10      53    51.2      6.49        68.8      69.0      68.6       0       1     331     334    1014    0.00
    08/27/2014 00:20      54    50.8      6.49        68.7      69.0      68.4       0       0       0     323    1015    0.00
    08/27/2014 00:30      52    50.6      6.49        68.3      69.0      68.0       0       0       0     322    1015    0.00
    08/27/2014 00:40      53    50.1      6.49        68.1      69.0      67.7       0       0       0     310    1015    0.00
    08/27/2014 00:50      53    50.0      6.49        67.9      69.0      67.7       0       0       0     310    1015    0.00
    08/27/2014 01:00      54    50.3      6.49        67.7      69.0      67.3       0       0       0     330    1015    0.00
    08/27/2014 01:10      53    50.5      6.49        67.8      69.0      67.3       0       1      18      26    1015    0.00
    08/27/2014 01:20      49    49.9      6.49        68.0      69.0      67.3       1       3      39      36    1015    0.00
    08/27/2014 01:30      47    48.1      6.49        68.7      69.0      67.3       1       3      38      27    1015    0.00
    08/27/2014 01:40      48    48.3      6.49        68.7      69.0      67.3       1       3      22      17    1015    0.00
    08/27/2014 01:50      47    48.2      6.49        68.8      69.0      67.3       1       2       3     348    1015    0.00
    08/27/2014 02:00      47    47.8      6.49        69.0      69.2      67.3       1       2       9       0    1015    0.00
    08/27/2014 02:10      49    48.0      6.49        68.6      69.2      67.3       0       1     165     167    1015    0.00
    08/27/2014 02:20      52    48.3      6.49        67.2      69.2      66.8       0       1     163     163    1015    0.00
    08/27/2014 02:30      52    48.5      6.49        66.7      69.2      66.4       0       0       0     144    1015    0.00
    08/27/2014 02:40      53    48.5      6.49        66.6      69.2      66.4       0       0       0     256    1015    0.00
    08/27/2014 02:50      54    48.8      6.49        66.4      69.2      66.1       0       0       0     273    1015    0.00
    08/27/2014 03:00      54    48.9      6.49        66.0      69.2      65.5       0       0       0     273    1015    0.00
    08/27/2014 03:10      53    48.5      6.49        65.7      69.2      65.5       0       2     320     320    1015    0.00
    08/27/2014 03:20      51    47.6      6.49        65.8      69.2      65.5       0       1     315     330    1015    0.00
    08/27/2014 03:30      52    47.0      6.49        65.5      69.2      65.2       0       0       0     317    1015    0.00
    08/27/2014 03:40      52    47.7      6.49        65.3      69.2      65.1       0       0       0     301    1015    0.00
    08/27/2014 03:50      51    47.3      6.49        65.5      69.2      65.1       0       2     335     339    1015    0.00
    08/27/2014 04:00      50    46.9      6.49        65.8      69.2      65.1       0       2     338     330    1015    0.00
    08/27/2014 04:10      52    47.1      6.49        65.5      69.2      65.0       0       0       0     350    1015    0.00
    08/27/2014 04:20      50    47.2      6.49        65.4      69.2      64.8       0       2      35     347    1015    0.00
    08/27/2014 04:30      51    47.0      6.49        66.3      69.2      64.8       1       2     359     354    1015    0.00
    08/27/2014 04:40      54    47.6      6.49        65.1      69.2      64.6       0       0       0     342    1015    0.00
    08/27/2014 04:50      55    47.7      6.49        64.5      69.2      64.2       0       0       0     301    1016    0.00
    08/27/2014 05:00      56    47.6      6.49        64.2      69.2      63.9       0       0       0     264    1016    0.00
    08/27/2014 05:10      57    48.1      6.49        63.9      69.2      63.7       0       1     174     172    1016    0.00
    08/27/2014 05:20      57    48.8      6.49        64.0      69.2      63.7       0       0       0     159    1016    0.00
    08/27/2014 05:30      56    48.5      6.49        64.2      69.2      63.7       0       2     327     304    1016    0.00
    08/27/2014 05:40      56    48.6      6.49        64.5      69.2      63.7       1       2     330     338    1016    0.00
    08/27/2014 05:50      56    48.7      6.49        64.9      69.2      63.7       0       1     333     333    1016    0.00
    08/27/2014 06:00      57    49.0      6.49        64.8      69.2      63.7       0       0       0     329    1016    0.00
    08/27/2014 06:10      55    48.9      6.49        65.3      69.2      63.7       0       1     326     327    1016    0.00
    08/27/2014 06:20      54    49.2      6.49        65.9      69.2      63.7       0       0       0     296    1016    0.00
    08/27/2014 06:30      52    49.0      6.49        67.1      69.2      63.7       0       0       0     299    1016    0.00
    08/27/2014 06:40      50    49.2      6.49        69.3      70.2      63.7       0       0       0     311    1016    0.00
    08/27/2014 06:50      41    49.0      6.49        71.1      72.2      63.7       1       2     168     165    1016    0.00
    08/27/2014 07:00      39    46.9      6.49        72.3      72.6      63.7       1       1     193     199    1016    0.00
    08/27/2014 07:10      36    46.3      6.49        73.3      74.7      63.7       0       0     258     258    1016    0.00
    08/27/2014 07:20      35    45.7      6.49        75.0      75.8      63.7       0       2     186     204    1016    0.00
    08/27/2014 07:30      37    46.6      6.49        75.4      75.8      63.7       2       3     187     190    1016    0.00
    08/27/2014 07:40      38    47.4      6.49        75.1      75.8      63.7       2       3     192     202    1016    0.00
    08/27/2014 07:50      33    46.5      6.49        75.8      76.4      63.7       2       3     184     217    1016    0.00
    08/27/2014 08:00      32    45.8      6.49        77.2      78.3      63.7       0       1     202     177    1016    0.00
    08/27/2014 08:10      31    45.6      6.49        78.3      78.9      63.7       1       3     187     183    1016    0.00
    08/27/2014 08:20      30    45.0      6.49        79.2      79.9      63.7       1       3     178     194    1016    0.00
    08/27/2014 08:30      28    44.4      6.49        80.0      80.7      63.7       1       4     187     191    1016    0.00
    08/27/2014 08:40      26    44.1      6.49        81.0      82.2      63.7       1       3     170     206    1016    0.00
    08/27/2014 08:50      27    43.9      6.49        82.0      82.8      63.7       1       4     192     173    1016    0.00
    08/27/2014 09:00      27    44.2      6.49        82.7      83.2      63.7       2       5     169     137    1016    0.00
    08/27/2014 09:10      23    43.1      6.49        83.5      84.2      63.7       1       3     178     180    1016    0.00
    08/27/2014 09:20      22    42.7      6.49        85.1      86.3      63.7       1       4     188     201    1016    0.00
    08/27/2014 09:30      22    42.8      6.49        85.1      86.3      63.7       1       4     180     166    1016    0.00
    08/27/2014 09:40      18    41.5      6.49        85.6      86.8      63.7       1       4     209     210    1016    0.00
    08/27/2014 09:50      16    38.1      6.49        86.6      87.2      63.7       2       4     244     180    1016    0.00
    08/27/2014 10:00      17    38.0      6.49        87.9      88.7      63.7       1       4     154     164    1016    0.00
    08/27/2014 10:10      18    37.9      6.49        88.1      88.7      63.7       2       5     167     147    1016    0.00
    08/27/2014 10:20      16    38.0      6.49        88.9      89.3      63.7       2       5     180     140    1016    0.00
    08/27/2014 10:30      16    37.6      6.49        89.4      90.2      63.7       3       6     176     146    1016    0.00
    08/27/2014 10:40      16    36.7      6.49        90.0      90.8      63.7       2       6     192     149    1016    0.00
    08/27/2014 10:50      15    37.0      6.49        90.1      90.8      63.7       3       6     138     155    1016    0.00
    08/27/2014 11:00      16    38.1      6.49        90.7      91.4      63.7       2       6     178     210    1016    0.00
    08/27/2014 11:10      17    39.3      6.49        90.1      91.4      63.7       4       7     189     189    1016    0.00
    08/27/2014 11:20      17    39.0      6.49        90.0      91.4      63.7       4       7     145     137    1016    0.00
    08/27/2014 11:30      18    40.0      6.49        90.6      91.4      63.7       4      10     169     155    1016    0.00
    08/27/2014 11:40      16    40.3      6.49        91.1      92.0      63.7       3       7     188     204    1015    0.00
    08/27/2014 11:50      16    40.2      6.49        92.3      93.0      63.7       3       8     128     117    1015    0.00
    08/27/2014 12:00      18    40.7      6.49        93.0      94.0      63.7       2       6     166     193    1015    0.00
    08/27/2014 12:10      17    40.4      6.49        92.9      94.1      63.7       4      10     177     143    1015    0.00
    08/27/2014 12:20      17    42.0      6.49        93.4      94.5      63.7       4      11     156     176    1015    0.00
    08/27/2014 12:30      16    42.8      6.49        93.4      94.5      63.7       4       9     138     162    1015    0.00
    08/27/2014 12:40      17    42.3      6.49        93.8      94.5      63.7       6      12     140     160    1015    0.00
    08/27/2014 12:50      16    42.0      6.49        93.8      94.5      63.7       4      11     155     140    1015    0.00
    08/27/2014 13:00      15    41.4      6.49        93.6      94.5      63.7       4       9     160     160    1015    0.00
    08/27/2014 13:10      16    42.0      6.49        94.5      95.1      63.7       4       9     159     152    1015    0.00
    08/27/2014 13:20      15    40.8      6.49        94.6      95.3      63.7       5      10     145     155    1015    0.00
    08/27/2014 13:30      16    41.5      6.49        94.1      95.3      63.7       5      12     187     162    1015    0.00
    08/27/2014 13:40      15    40.9      6.49        95.0      95.7      63.7       4      10     149     142    1014    0.00
    08/27/2014 13:50      15    40.5      6.49        95.1      95.7      63.7       4       7     218     166    1014    0.00
    08/27/2014 14:00      16    41.2      6.49        94.9      95.7      63.7       4       9     265     227    1014    0.00
    08/27/2014 14:10      16    41.7      6.49        94.8      95.7      63.7       5      12     270     250    1014    0.00
    08/27/2014 14:20      16    41.3      6.49        94.8      95.8      63.7       5      13     267     256    1014    0.00
    08/27/2014 14:30      16    41.4      6.49        94.4      95.8      63.7       5      12     284     258    1014    0.00
    08/27/2014 14:40      16    41.2      6.49        94.5      95.8      63.7       5      14     265     216    1014    0.00
    08/27/2014 14:50      16    41.2      6.49        94.2      95.8      63.7       5      12     284     243    1014    0.00
    08/27/2014 15:00      16    41.0      6.49        93.6      95.8      63.7       7      13     269     254    1014    0.00
    08/27/2014 15:10      16    40.8      6.49        93.3      95.8      63.7       5      15     276     264    1014    0.00
    08/27/2014 15:20      16    40.5      6.49        93.2      95.8      63.7       6      12     280     257    1014    0.00
    08/27/2014 15:30      17    40.3      6.49        92.6      95.8      63.7       5      11     284     271    1014    0.00
    08/27/2014 15:40      16    40.2      6.49        92.4      95.8      63.7       6      11     276     235    1014    0.00
    08/27/2014 15:50      16    40.1      6.49        92.2      95.8      63.7       6      10     278     252    1014    0.00
    08/27/2014 16:00      16    40.2      6.49        92.3      95.8      63.7       5      11     276     290    1014    0.00
    08/27/2014 16:10      16    40.2      6.49        92.2      95.8      63.7       5      12     273     246    1014    0.00
    08/27/2014 16:20      17    40.5      6.49        91.3      95.8      63.7       6      12     274     248    1014    0.00
    08/27/2014 16:30      17    40.7      6.49        91.3      95.8      63.7       5      10     283     306    1014    0.00
    08/27/2014 16:40      18    41.1      6.49        90.8      95.8      63.7       5       9     289     288    1014    0.00
    08/27/2014 16:50      20    41.1      6.49        90.6      95.8      63.7       6      11     264     251    1014    0.00
    08/27/2014 17:00      21    43.8      6.49        89.7      95.8      63.7       6      13     269     231    1014    0.00
    08/27/2014 17:10      20    43.1      6.49        89.1      95.8      63.7       6      13     277     258    1014    0.00
    08/27/2014 17:20      21    42.8      6.49        88.3      95.8      63.7       6      12     277     234    1014    0.00
    08/27/2014 17:30      21    42.9      6.49        87.6      95.8      63.7       6      11     284     284    1014    0.00
    08/27/2014 17:40      20    42.5      6.49        87.1      95.8      63.7       5      10     275     293    1014    0.00
    08/27/2014 17:50      18    39.1      6.49        86.6      95.8      63.7       6      12     282     289    1014    0.00
    08/27/2014 18:00      20    38.6      6.49        86.1      95.8      63.7       4      11     273     254    1014    0.00
    08/27/2014 18:10      21    40.3      6.49        85.6      95.8      63.7       4       7     279     267    1014    0.00
    08/27/2014 18:20      23    41.5      6.49        84.9      95.8      63.7       4       8     270     261    1014    0.00
    08/27/2014 18:30      26    44.3      6.49        83.7      95.8      63.7       4       7     259     279    1014    0.00
    08/27/2014 18:40      26    44.6      6.49        82.9      95.8      63.7       3       7     254     248    1014    0.00
    08/27/2014 18:50      26    44.2      6.49        82.8      95.8      63.7       2       6     247     250    1015    0.00
    08/27/2014 19:00      26    43.5      6.49        81.8      95.8      63.7       1       4     220     216    1015    0.00
    08/27/2014 19:10      24    42.2      6.49        81.6      95.8      63.7       3       6     234     247    1015    0.00
    08/27/2014 19:20      23    41.1      6.49        81.8      95.8      63.7       3       7     257     250    1015    0.00
    08/27/2014 19:30      24    41.2      6.49        81.6      95.8      63.7       3       7     242     262    1015    0.00
    08/27/2014 19:40      23    40.6      6.49        81.2      95.8      63.7       4       8     259     264    1015    0.00
    08/27/2014 19:50      21    38.6      6.49        81.1      95.8      63.7       4      10     279     263    1015    0.00
    08/27/2014 20:00      23    38.4      6.49        80.7      95.8      63.7       4       7     284     279    1015    0.00
    08/27/2014 20:10      24    39.4      6.49        80.4      95.8      63.7       3       7     273     256    1015    0.00
    08/27/2014 20:20      24    39.9      6.49        80.1      95.8      63.7       4       8     266     243    1015    0.00
    08/27/2014 20:30      22    39.0      6.49        80.0      95.8      63.7       4       8     267     256    1015    0.00
    08/27/2014 20:40      23    38.9      6.49        79.8      95.8      63.7       3       6     274     244    1015    0.00
    08/27/2014 20:50      23    38.8      6.49        79.5      95.8      63.7       3       7     263     258    1015    0.00
    08/27/2014 21:00      24    39.3      6.49        79.5      95.8      63.7       4       7     253     263    1015    0.00
    08/27/2014 21:10      25    39.5      6.49        79.1      95.8      63.7       3       6     253     254    1015    0.00
    08/27/2014 21:20      28    41.0      6.49        78.2      95.8      63.7       0       2     255     258    1015    0.00
    08/27/2014 21:30      28    41.2      6.49        77.3      95.8      63.7       2       4     257     262    1015    0.00
    08/27/2014 21:40      29    42.3      6.49        76.8      95.8      63.7       2       4     258     257    1015    0.00
    08/27/2014 21:50      29    42.0      6.49        76.6      95.8      63.7       2       5     244     247    1015    0.00
    08/27/2014 22:00      30    42.5      6.49        76.1      95.8      63.7       0       2     246     270    1015    0.00
    08/27/2014 22:10      31    42.3      6.49        75.8      95.8      63.7       2       4     246     241    1015    0.00
    08/27/2014 22:20      31    42.5      6.49        75.8      95.8      63.7       1       2     307     320    1015    0.00
    08/27/2014 22:30      30    42.8      6.49        75.0      95.8      63.7       1       4     219     187    1016    0.00
    08/27/2014 22:40      31    41.9      6.49        74.7      95.8      63.7       1       5     264     252    1015    0.00
    08/27/2014 22:50      33    42.5      6.49        74.6      95.8      63.7       0       3     253     257    1016    0.00
    08/27/2014 23:00      35    43.9      6.49        74.2      95.8      63.7       1       5     268     244    1016    0.00
    08/27/2014 23:10      36    44.7      6.49        73.6      95.8      63.7       0       2     284     301    1016    0.00
    08/27/2014 23:20      37    44.8      6.49        72.9      95.8      63.7       0       0       0     292    1016    0.00
    08/27/2014 23:30      41    45.7      6.49        72.4      95.8      63.7       0       1     329     319    1016    0.00
    08/27/2014 23:40      39    46.5      6.49        72.4      95.8      63.7       0       2     331     334    1016    0.00
    08/27/2014 23:50      42    46.5      6.49        72.4      95.8      63.7       0       1     340     349    1016    0.00
    08/28/2014 00:00      41    47.2      6.49        71.7      95.8      63.7       0       0       0     314    1015    0.00
    08/28/2014 00:10      44    47.7      6.49        70.8      71.6      70.2       0       1     119     100    1015    0.00
    08/28/2014 00:20      43    47.3      6.49        70.7      71.6      70.2       1       2     136     116    1015    0.00
    08/28/2014 00:30      43    47.0      6.49        70.6      71.6      70.2       1       2     140     144    1015    0.00
    08/28/2014 00:40      44    47.2      6.49        70.1      71.6      69.5       0       0       0     136    1015    0.00
    08/28/2014 00:50      44    46.5      6.49        69.5      71.6      69.3       0       0       0     189    1015    0.00
    08/28/2014 01:00      46    47.4      6.49        70.0      71.6      69.3       0       0       0     260    1015    0.00
    08/28/2014 01:10      45    47.8      6.49        69.9      71.6      69.3       0       0       0     312    1015    0.00
    08/28/2014 01:20      44    47.9      6.49        69.7      71.6      69.3       0       2     330     346    1015    0.00
    08/28/2014 01:30      44    47.2      6.49        69.7      71.6      69.3       0       0     322     324    1015    0.00
    08/28/2014 01:40      44    46.9      6.49        69.4      71.6      69.2       0       0     353     353    1015    0.00
    08/28/2014 01:50      45    46.2      6.49        69.4      71.6      69.0       0       2      40      41    1015    0.00
    08/28/2014 02:00      49    47.3      6.49        69.3      71.6      68.9       0       1       5       7    1015    0.00
    08/28/2014 02:10      46    47.6      6.49        68.7      71.6      68.5       0       1     360       4    1015    0.00
    08/28/2014 02:20      46    47.8      6.49        69.0      71.6      68.5       0       1     345     331    1015    0.00
    08/28/2014 02:30      47    47.7      6.49        69.1      71.6      68.5       0       1      12      27    1015    0.00
    08/28/2014 02:40      46    47.8      6.49        69.2      71.6      68.5       0       1     345     353    1015    0.00
    08/28/2014 02:50      46    47.6      6.49        69.5      71.6      68.5       0       1     352     355    1015    0.00
    08/28/2014 03:00      50    48.2      6.49        68.4      71.6      67.9       0       0       0     340    1015    0.00
    08/28/2014 03:10      49    48.3      6.49        67.8      71.6      67.6       0       0       0     251    1015    0.00
    08/28/2014 03:20      52    48.5      6.49        67.8      71.6      67.4       0       0       0     261    1015    0.00
    08/28/2014 03:30      51    48.6      6.49        67.4      71.6      67.2       0       1     335     335    1015    0.00
    08/28/2014 03:40      53    49.0      6.49        67.0      71.6      66.5       0       0     269     269    1015    0.00
    08/28/2014 03:50      52    48.8      6.49        66.6      71.6      66.4       0       1     296     270    1015    0.00
    08/28/2014 04:00      54    48.6      6.49        66.9      71.6      66.4       0       1     341     342    1015    0.00
    08/28/2014 04:10      54    48.9      6.49        66.3      71.6      66.0       0       0       0     330    1015    0.00
    08/28/2014 04:20      55    49.3      6.49        66.1      71.6      65.9       0       0       0      48    1015    0.00
    08/28/2014 04:30      56    49.6      6.49        65.7      71.6      65.4       0       0       0     250    1015    0.00
    08/28/2014 04:40      56    49.6      6.49        65.6      71.6      65.4       0       0       0     243    1015    0.00
    08/28/2014 04:50      54    49.6      6.49        66.0      71.6      65.4       0       0       0     264    1015    0.00
    08/28/2014 05:00      55    49.6      6.49        66.0      71.6      65.4       1       3     333     337    1015    0.00
    08/28/2014 05:10      54    49.1      6.49        66.6      71.6      65.4       1       2     334     331    1015    0.00
    08/28/2014 05:20      57    49.4      6.49        66.1      71.6      65.4       0       0       0     333    1015    0.00
    08/28/2014 05:30      57    49.8      6.49        65.5      71.6      65.2       0       0       0     332    1015    0.00
    08/28/2014 05:40      56    49.5      6.49        65.4      71.6      65.2       0       0       0     337    1015    0.00
    08/28/2014 05:50      53    49.2      6.49        66.1      71.6      65.2       1       2     349     354    1015    0.00
    08/28/2014 06:00      53    49.1      6.49        66.7      71.6      65.2       0       1     349     348    1015    0.00
    08/28/2014 06:10      55    49.7      6.49        66.9      71.6      65.2       0       1      35      34    1015    0.00
    08/28/2014 06:20      53    50.0      6.49        67.2      71.6      65.2       0       0       0      53    1015    0.00
    08/28/2014 06:30      49    50.3      6.49        69.0      71.6      65.2       0       0       0     282    1015    0.00
    08/28/2014 06:40      44    50.0      6.49        71.6      72.8      65.2       0       0       0      73    1015    0.00
    08/28/2014 06:50      38    49.3      6.49        74.5      76.0      65.2       0       0       0     209    1015    0.00
    08/28/2014 07:00      38    48.5      6.49        76.3      76.7      65.2       0       0     274     272    1015    0.00
    08/28/2014 07:10      32    47.0      6.49        77.4      78.0      65.2       0       1     202     204    1015    0.00
    08/28/2014 07:20      31    44.7      6.49        77.8      78.2      65.2       0       1     208     216    1015    0.00
    08/28/2014 07:30      29    45.3      6.49        79.2      80.2      65.2       0       1     219     249    1015    0.00
    08/28/2014 07:40      28    44.9      6.49        80.5      81.2      65.2       0       1     224     252    1015    0.00
    08/28/2014 07:50      28    44.9      6.49        81.4      81.8      65.2       0       2     197     206    1015    0.00
    08/28/2014 08:00      29    44.8      6.49        81.5      81.8      65.2       1       2     237     258    1015    0.00
    08/28/2014 08:10      28    45.6      6.49        82.3      82.7      65.2       0       2     171     161    1015    0.00
    08/28/2014 08:20      26    45.8      6.49        83.2      83.8      65.2       1       2     191     215    1015    0.00
    08/28/2014 08:30      26    45.4      6.49        83.7      84.2      65.2       1       2     184     167    1015    0.00
    08/28/2014 08:40      25    45.4      6.49        84.5      85.3      65.2       1       2     230     212    1015    0.00
    08/28/2014 08:50      24    45.3      6.49        85.4      86.0      65.2       0       2     237     237    1015    0.00
    08/28/2014 09:00      23    45.6      6.49        86.3      87.1      65.2       1       3     138     147    1015    0.00
    08/28/2014 09:10      25    46.2      6.49        87.1      87.6      65.2       2       4     171     156    1015    0.00
    08/28/2014 09:20      24    45.7      6.49        87.3      88.4      65.2       1       5     160     168    1015    0.00
    08/28/2014 09:30      23    44.6      6.49        87.8      88.4      65.2       1       4     167     140    1015    0.00
    08/28/2014 09:40      21    45.7      6.49        88.6      89.3      65.2       1       4     155      78    1015    0.00
    08/28/2014 09:50      19    45.0      6.49        89.7      90.3      65.2       2       4     114     140    1015    0.00
    08/28/2014 10:00      17    43.0      6.49        89.6      90.8      65.2       1       3     194     215    1015    0.00
    08/28/2014 10:10      17    41.0      6.49        90.7      91.1      65.2       1       4     181     204    1014    0.00
    08/28/2014 10:20      17    41.9      6.49        91.5      91.9      65.2       3       5     178     171    1014    0.00
    08/28/2014 10:30      17    41.6      6.49        92.4      92.9      65.2       2       5     179     188    1014    0.00
    08/28/2014 10:40      17    42.6      6.49        92.3      92.9      65.2       4       6     189     186    1014    0.00
    08/28/2014 10:30      17    41.6      6.49        92.4      92.9      65.2       2       5     179     188    1014    0.00
    08/28/2014 10:40      17    42.6      6.49        92.3      92.9      65.2       4       6     189     186    1014    0.00
    08/28/2014 10:50      16    42.4      6.49        93.3      94.0      65.2       3       9     202     170    1014    0.00
    08/28/2014 11:00      17    42.5      6.49        93.5      95.0      65.2       4       8     180     167    1014    0.00
    08/28/2014 11:10      16    42.3      6.49        94.8      95.3      65.2       3       7     155     151    1014    0.00
    08/28/2014 11:20      16    42.3      6.49        95.9      96.4      65.2       2       6     171     163    1013    0.00
    08/28/2014 11:30      16    43.1      6.49        96.7      97.3      65.2       2       6     200     180    1013    0.00
    08/28/2014 11:40      16    42.8      6.49        96.2      97.3      65.2       4       8     232     176    1013    0.00
    08/28/2014 11:50      15    42.5      6.49        96.7      97.4      65.2       4       7     261     253    1013    0.00
    08/28/2014 12:00      15    42.4      6.49        97.0      97.5      65.2       3       8     306     287    1013    0.00
    08/28/2014 12:10      16    43.0      6.49        97.7      98.8      65.2       4       8     279     260    1013    0.00
    08/28/2014 12:20      15    43.0      6.49        97.6      98.8      65.2       6      13     262     263    1013    0.00
    08/28/2014 12:30      16    42.3      6.49        97.2      98.8      65.2       7      13     279     279    1013    0.00
    08/28/2014 12:40      16    42.8      6.49        96.8      98.8      65.2       7      12     283     285    1012    0.00
    08/28/2014 12:50      16    43.0      6.49        96.3      98.8      65.2       8      15     270     252    1012    0.00
    08/28/2014 13:00      16    43.3      6.49        95.8      98.8      65.2       8      17     275     280    1012    0.00
    08/28/2014 13:10      17    43.4      6.49        95.5      98.8      65.2       7      14     279     306    1012    0.00
    08/28/2014 13:20      16    43.4      6.49        95.1      98.8      65.2       7      14     271     253    1012    0.00
    08/28/2014 13:30      16    42.8      6.49        94.9      98.8      65.2       8      14     271     250    1012    0.00
    08/28/2014 13:40      16    41.8      6.49        95.7      98.8      65.2       7      14     264     257    1012    0.00
    08/28/2014 13:50      15    41.4      6.49        95.7      98.8      65.2       8      17     266     263    1012    0.00
    08/28/2014 14:00      16    40.6      6.49        95.0      98.8      65.2       7      15     272     293    1012    0.00
    08/28/2014 14:10      14    40.6      6.49        95.8      98.8      65.2       6      13     277     243    1012    0.00
    08/28/2014 14:20      15    39.3      6.49        95.2      98.8      65.2       8      17     270     251    1012    0.00
    08/28/2014 14:30      14    39.5      6.49        95.5      98.8      65.2       7      13     277     251    1012    0.00
    08/28/2014 14:40      14    39.3      6.49        95.4      98.8      65.2       7      16     279     239    1012    0.00
    08/28/2014 14:50      15    38.6      6.49        95.0      98.8      65.2       8      15     275     253    1012    0.00
    08/28/2014 15:00      13    38.5      6.49        94.6      98.8      65.2       7      14     267     273    1012    0.00
    08/28/2014 15:10      13    36.7      6.49        94.2      98.8      65.2       8      19     272     243    1012    0.00
    08/28/2014 15:20      13    35.9      6.49        94.0      98.8      65.2       6      15     264     243    1011    0.00
    08/28/2014 15:30      12    34.0      6.49        93.3      98.8      65.2       9      19     264     242    1011    0.00
    08/28/2014 15:40      11    32.0      6.49        92.9      98.8      65.2       9      18     259     251    1011    0.00
    08/28/2014 15:50      11    30.5      6.49        92.7      98.8      65.2       9      18     250     250    1011    0.00
    08/28/2014 16:00      11    29.5      6.49        92.6      98.8      65.2       8      14     264     258    1011    0.00
    08/28/2014 16:10      10    29.8      6.49        92.3      98.8      65.2       9      16     262     246    1011    0.00
    08/28/2014 16:20      11    28.2      6.49        91.8      98.8      65.2       9      17     253     256    1011    0.00
    08/28/2014 16:30      10    28.2      6.49        91.9      98.8      65.2       8      16     261     252    1011    0.00
    08/28/2014 16:40      11    29.3      6.49        92.1      98.8      65.2       6      13     258     251    1011    0.00
    08/28/2014 16:50      11    30.2      6.49        92.1      98.8      65.2       5      12     253     252    1011    0.00
    08/28/2014 17:00      12    30.7      6.49        92.3      98.8      65.2       5      11     253     263    1011    0.00
    08/28/2014 17:10      13    32.2      6.49        91.7      98.8      65.2       6      16     258     239    1011    0.00
    08/28/2014 17:20      13    33.4      6.49        90.9      98.8      65.2       5      10     261     254    1011    0.00
    08/28/2014 17:30      14    34.5      6.49        90.5      98.8      65.2       4      10     266     257    1011    0.00
    08/28/2014 17:40      14    34.0      6.49        89.3      98.8      65.2       6      14     260     249    1011    0.00
    08/28/2014 17:50      14    33.6      6.49        88.4      98.8      65.2       6      12     271     259    1011    0.00
    08/28/2014 18:00      14    33.1      6.49        87.7      98.8      65.2       6      13     259     259    1011    0.00
    08/28/2014 18:10      15    33.0      6.49        86.9      98.8      65.2       5      11     258     261    1011    0.00
    08/28/2014 18:20      16    32.6      6.49        86.0      98.8      65.2       6      12     256     250    1011    0.00
    08/28/2014 18:30      15    33.0      6.49        84.8      98.8      65.2       5      10     251     249    1011    0.00
    08/28/2014 18:40      15    32.0      6.49        84.0      98.8      65.2       6       9     249     218    1011    0.00
    08/28/2014 18:50      15    31.6      6.49        84.1      98.8      65.2       5      10     240     258    1011    0.00
    08/28/2014 19:00      15    31.3      6.49        83.3      98.8      65.2       3       7     227     218    1011    0.00
    08/28/2014 19:10      16    31.8      6.49        83.0      98.8      65.2       4      10     233     254    1011    0.00
    08/28/2014 19:20      16    32.0      6.49        82.3      98.8      65.2       3       8     242     245    1011    0.00
    08/28/2014 19:30      16    31.4      6.49        81.9      98.8      65.2       2       6     276     261    1011    0.00
    08/28/2014 19:40      19    31.6      6.49        81.5      98.8      65.2       3       6     261     265    1011    0.00
    08/28/2014 19:50      18    33.3      6.49        80.5      98.8      65.2       2       5     261     259    1011    0.00
    08/28/2014 20:00      21    35.7      6.49        80.3      98.8      65.2       2       5     262     259    1011    0.00
    08/28/2014 20:10      22    37.0      6.49        79.5      98.8      65.2       0       2     295     297    1011    0.00
    08/28/2014 20:20      22    37.2      6.49        78.8      98.8      65.2       2       3     288     280    1012    0.00
    08/28/2014 20:30      22    37.0      6.49        78.5      98.8      65.2       1       4     271     244    1012    0.00
    08/28/2014 20:40      23    36.8      6.49        78.3      98.8      65.2       1       3     260     272    1012    0.00
    08/28/2014 20:50      23    37.2      6.49        77.9      98.8      65.2       0       2     311     295    1011    0.00
    08/28/2014 21:00      24    37.5      6.49        77.3      98.8      65.2       0       0       0     314    1012    0.00
    08/28/2014 21:10      25    37.9      6.49        76.6      98.8      65.2       0       0       0     331    1012    0.00
    08/28/2014 21:20      25    38.2      6.49        76.2      98.8      65.2       1       3     170     167    1012    0.00
    08/28/2014 21:30      24    36.5      6.49        75.8      98.8      65.2       0       0       0     185    1012    0.00
    08/28/2014 21:40      24    36.3      6.49        75.5      98.8      65.2       0       0       0     207    1012    0.00
    08/28/2014 21:50      25    36.4      6.49        75.3      98.8      65.2       0       0       0     193    1012    0.00
    08/28/2014 22:00      26    37.4      6.49        75.0      98.8      65.2       0       0       0     171    1012    0.00
    08/28/2014 22:10      26    37.5      6.49        74.5      98.8      65.2       0       0       0     178    1012    0.00
    08/28/2014 22:20      27    38.5      6.49        74.4      98.8      65.2       0       0       0     122    1012    0.00
    08/28/2014 22:30      28    39.2      6.49        74.4      98.8      65.2       0       0       0      48    1012    0.00
    08/28/2014 22:40      28    39.3      6.49        74.1      98.8      65.2       0       0       0      19    1012    0.00
    08/28/2014 22:50      29    39.5      6.49        73.7      98.8      65.2       0       0       0      44    1012    0.00
    08/28/2014 23:00      30    39.5      6.49        73.3      98.8      65.2       0       2      40      50    1011    0.00
    08/28/2014 23:10      31    40.3      6.49        72.5      98.8      65.2       0       1      49      38    1011    0.00
    08/28/2014 23:20      32    40.3      6.49        72.2      98.8      65.2       1       2      38      59    1011    0.00
    08/28/2014 23:30      32    40.9      6.49        72.7      98.8      65.2       0       1      31      20    1011    0.00
    08/28/2014 23:40      32    41.3      6.49        72.9      98.8      65.2       0       2      14      21    1012    0.00
    08/28/2014 23:50      32    41.3      6.49        72.8      98.8      65.2       0       2     354     354    1012    0.00
    08/29/2014 00:00      33    41.1      6.49        72.9      98.8      65.2       0       2      12       8    1011    0.00
    08/29/2014 00:10      34    41.9      6.49        71.2      72.5      70.5       0       0       0      21    1011    0.00
    08/29/2014 00:20      34    41.3      6.49        70.7      72.5      70.5       0       0       0     239    1011    0.00
    08/29/2014 00:30      34    41.4      6.49        71.3      72.5      70.5       0       1     330     328    1011    0.00
    08/29/2014 00:40      34    41.5      6.49        71.2      72.5      70.5       0       1     346     347    1011    0.00
    08/29/2014 00:50      36    41.6      6.49        70.9      72.5      70.4       0       1     324     328    1011    0.00
    08/29/2014 01:00      36    41.9      6.49        69.7      72.5      69.2       0       0       0     307    1011    0.00
    08/29/2014 01:10      36    40.9      6.49        69.0      72.5      68.5       0       0       0     307    1011    0.00
    08/29/2014 01:20      36    41.1      6.49        68.5      72.5      68.3       0       0       0     302    1011    0.00
    08/29/2014 01:30      38    41.5      6.49        68.5      72.5      68.3       0       0       0     180    1011    0.00
    08/29/2014 01:40      38    42.2      6.49        68.6      72.5      68.3       0       0       0     106    1011    0.00
    08/29/2014 01:50      40    42.7      6.49        68.6      72.5      68.3       0       1     346     346    1011    0.00
    08/29/2014 02:00      39    43.6      6.49        68.8      72.5      68.3       0       1     340     343    1011    0.00
    08/29/2014 02:10      39    43.5      6.49        68.9      72.5      68.3       0       1     345     339    1011    0.00
    08/29/2014 02:20      39    42.6      6.49        68.9      72.5      68.3       0       1      21      -1    1011    0.00
    08/29/2014 02:30      40    42.8      6.49        68.2      72.5      67.7       0       0       0      17    1011    0.00
    08/29/2014 02:40      41    42.7      6.49        67.5      72.5      67.1       0       0       0     130    1010    0.00
    08/29/2014 02:50      42    42.7      6.49        67.0      72.5      66.7       0       0       0     351    1010    0.00
    08/29/2014 03:00      43    42.8      6.49        66.8      72.5      66.5       0       0       0     351    1010    0.00
    08/29/2014 03:10      43    43.3      6.49        66.6      72.5      66.4       0       0       0     314    1010    0.00
    08/29/2014 03:20      45    43.6      6.49        66.1      72.5      65.6       0       0       0     305    1010    0.00
    08/29/2014 03:30      44    43.4      6.49        65.7      72.5      65.5       0       0       0     304    1010    0.00
    08/29/2014 03:40      44    43.2      6.49        65.2      72.5      65.0       0       0       0     292    1011    0.00
    08/29/2014 03:50      43    42.6      6.49        65.3      72.5      65.0       0       0       0     303    1010    0.00
    08/29/2014 04:00      43    42.5      6.49        65.7      72.5      65.0       0       1     346     349    1010    0.00
    08/29/2014 04:10      43    42.5      6.49        65.6      72.5      65.0       0       0       0     355    1010    0.00
    08/29/2014 04:20      44    42.6      6.49        65.4      72.5      65.0       0       0       0      30    1010    0.00
    08/29/2014 04:30      44    42.9      6.49        65.4      72.5      65.0       0       1      28      38    1011    0.00
    08/29/2014 04:40      43    42.8      6.49        66.1      72.5      65.0       0       2      16       4    1011    0.00
    08/29/2014 04:50      41    42.3      6.49        66.1      72.5      65.0       1       2      34      18    1011    0.00
    08/29/2014 05:00      43    42.5      6.49        65.8      72.5      65.0       0       2      17      33    1011    0.00
    08/29/2014 05:10      44    42.4      6.49        65.2      72.5      64.9       0       1       8      26    1011    0.00
    08/29/2014 05:20      49    44.4      6.49        64.3      72.5      63.6       0       0       0       6    1011    0.00
    08/29/2014 05:30      49    44.3      6.49        63.8      72.5      63.5       0       0       0       1    1011    0.00
    08/29/2014 05:40      47    43.6      6.49        64.0      72.5      63.5       0       1     333     327    1011    0.00
    08/29/2014 05:50      47    43.8      6.49        64.9      72.5      63.5       1       2     336     345    1011    0.00
    08/29/2014 06:00      51    45.1      6.49        64.6      72.5      63.5       0       0       0     315    1011    0.00
    08/29/2014 06:10      52    45.4      6.49        64.1      72.5      63.5       0       0       0     320    1011    0.00
    08/29/2014 06:20      51    46.3      6.49        64.2      72.5      63.5       0       0       0     321    1011    0.00
    08/29/2014 06:30      46    45.6      6.49        65.7      72.5      63.5       0       0       0     222    1011    0.00
    08/29/2014 06:40      41    45.9      6.49        68.7      72.5      63.5       0       0       0     239    1011    0.00
    08/29/2014 06:50      40    45.3      6.49        71.5      72.5      63.5       0       2     186     185    1011    0.00
    08/29/2014 07:00      41    46.6      6.49        71.4      72.5      63.5       2       3     187     196    1011    0.00
    08/29/2014 07:10      40    46.7      6.49        71.4      72.5      63.5       1       2     201     223    1011    0.00
    08/29/2014 07:20      38    46.1      6.49        72.0      72.8      63.5       1       2     207     196    1011    0.00
    08/29/2014 07:30      35    45.1      6.49        73.2      73.8      63.5       0       1     199     157    1011    0.00
    08/29/2014 07:40      33    44.9      6.49        74.7      75.9      63.5       0       1     160     158    1011    0.00
    08/29/2014 07:50      32    45.2      6.49        76.7      77.4      63.5       0       1     183     191    1011    0.00
    08/29/2014 08:00      29    44.6      6.49        78.0      78.3      63.5       0       2     158     145    1011    0.00
    08/29/2014 08:10      30    43.9      0.04        78.6      79.3      63.5       0       2     184     157    1011    0.00
    08/29/2014 08:20      29    44.5      0.04        78.5      79.3      63.5       1       3     201     199    1011    0.00
    08/29/2014 08:30      29    43.9      0.04        79.8      80.2      63.5       2       3     197     176    1011    0.00
    08/29/2014 08:40      25    42.8      0.04        80.1      81.0      63.5       3       6     145     173    1011    0.00